createdAt,value
2022-10-16T00:00:48.116Z,7.97
2022-10-16T00:06:12.389Z,8.18
2022-10-16T00:11:30.340Z,7.53
2022-10-16T00:16:33.024Z,5.00
2022-10-16T00:21:38.100Z,6.95
2022-10-16T00:26:41.004Z,7.97
2022-10-16T00:31:43.041Z,7.40
2022-10-16T00:36:45.019Z,5.57
2022-10-16T00:41:47.123Z,5.40
2022-10-16T00:46:49.695Z,5.70
2022-10-16T00:51:54.834Z,6.35
2022-10-16T00:57:00.942Z,6.25
2022-10-16T01:02:04.509Z,6.55
2022-10-16T01:07:35.684Z,5.40
2022-10-16T01:12:47.776Z,8.10
2022-10-16T01:17:57.607Z,6.72
2022-10-16T01:23:06.951Z,6.10
2022-10-16T01:28:13.990Z,3.70
2022-10-16T01:33:17.852Z,4.25
2022-10-16T01:38:36.409Z,5.43
2022-10-16T01:43:43.850Z,6.00
2022-10-16T01:48:46.784Z,4.85
2022-10-16T01:53:53.012Z,5.25
2022-10-16T01:59:16.146Z,5.45
2022-10-16T02:04:38.893Z,4.25
2022-10-16T02:09:41.193Z,4.53
2022-10-16T02:14:43.259Z,5.28
2022-10-16T02:19:48.040Z,5.63
2022-10-16T02:24:59.529Z,3.63
2022-10-16T02:30:12.380Z,5.55
2022-10-16T02:35:17.073Z,5.57
2022-10-16T02:40:21.570Z,4.22
2022-10-16T02:45:26.645Z,3.30
2022-10-16T02:50:28.655Z,3.10
2022-10-16T02:55:30.631Z,5.82
2022-10-16T03:00:32.622Z,3.65
2022-10-16T03:05:34.635Z,3.40
2022-10-16T03:10:36.596Z,8.45
2022-10-16T03:15:38.550Z,5.13
2022-10-16T03:20:40.620Z,5.20
2022-10-16T03:25:42.599Z,4.38
2022-10-16T03:30:44.973Z,4.95
2022-10-16T03:35:53.175Z,8.73
2022-10-16T03:40:55.168Z,4.75
2022-10-16T03:45:57.138Z,3.25
2022-10-16T03:50:59.462Z,3.60
2022-10-16T03:56:01.551Z,6.43
2022-10-16T04:01:03.619Z,5.55
2022-10-16T04:06:06.012Z,3.83
2022-10-16T04:11:07.999Z,4.20
2022-10-16T04:16:10.011Z,3.60
2022-10-16T04:21:11.960Z,4.50
2022-10-16T04:26:14.056Z,5.70
2022-10-16T04:31:16.026Z,5.65
2022-10-16T04:36:17.963Z,4.10
2022-10-16T04:41:21.171Z,3.95
2022-10-16T04:46:23.123Z,4.85
2022-10-16T04:51:26.464Z,3.30
2022-10-16T04:56:28.599Z,4.20
2022-10-16T05:01:30.556Z,5.68
2022-10-16T05:06:32.796Z,6.43
2022-10-16T05:11:35.171Z,4.82
2022-10-16T05:16:37.234Z,6.53
2022-10-16T05:21:39.403Z,5.82
2022-10-16T05:26:41.578Z,3.88
2022-10-16T05:31:43.635Z,4.20
2022-10-16T05:36:46.173Z,5.25
2022-10-16T05:41:50.484Z,5.40
2022-10-16T05:46:52.539Z,6.97
2022-10-16T05:51:54.653Z,6.57
2022-10-16T05:56:56.657Z,7.45
2022-10-16T06:01:58.639Z,7.40
2022-10-16T06:07:01.506Z,4.82
2022-10-16T06:12:03.876Z,7.57
2022-10-16T06:17:05.887Z,7.80
2022-10-16T06:22:08.231Z,4.63
2022-10-16T06:27:10.533Z,6.82
2022-10-16T06:32:12.635Z,6.25
2022-10-16T06:37:15.839Z,4.80
2022-10-16T06:42:18.084Z,6.07
2022-10-16T06:47:20.733Z,8.07
2022-10-16T06:52:22.687Z,5.15
2022-10-16T06:57:24.673Z,6.70
2022-10-16T07:02:26.766Z,6.85
2022-10-16T07:07:29.252Z,4.85
2022-10-16T07:12:31.621Z,8.38
2022-10-16T07:17:35.133Z,9.55
2022-10-16T07:22:37.194Z,6.18
2022-10-16T07:27:39.498Z,6.13
2022-10-16T07:32:41.505Z,6.40
2022-10-16T07:37:47.486Z,6.05
2022-10-16T07:42:49.457Z,8.52
2022-10-16T07:47:51.409Z,8.38
2022-10-16T07:52:53.468Z,5.78
2022-10-16T07:57:55.943Z,10.13
2022-10-16T08:03:01.109Z,4.88
2022-10-16T08:08:03.496Z,6.63
2022-10-16T08:13:05.448Z,5.55
2022-10-16T08:18:07.505Z,7.35
2022-10-16T08:23:12.024Z,5.50
2022-10-16T08:28:15.049Z,5.78
2022-10-16T08:33:17.227Z,8.68
2022-10-16T08:38:19.231Z,9.63
2022-10-16T08:43:22.009Z,8.93
2022-10-16T08:48:50.086Z,9.02
2022-10-16T08:53:56.179Z,5.13
2022-10-16T08:59:01.631Z,7.13
2022-10-16T09:04:37.719Z,4.85
2022-10-16T09:09:53.321Z,7.05
2022-10-16T09:15:07.287Z,6.45
2022-10-16T09:20:21.002Z,7.00
2022-10-16T09:25:23.200Z,11.85
2022-10-16T09:30:29.118Z,9.32
2022-10-16T09:35:50.814Z,9.32
2022-10-16T09:40:59.155Z,7.32
2022-10-16T09:46:07.448Z,6.50
2022-10-16T09:51:20.811Z,9.48
2022-10-16T09:56:25.487Z,13.63
2022-10-16T10:01:48.137Z,8.82
2022-10-16T10:06:51.816Z,11.95
2022-10-16T10:11:55.350Z,9.07
2022-10-16T10:17:06.660Z,11.27
2022-10-16T10:27:35.379Z,11.40
2022-10-16T10:32:43.802Z,13.40
2022-10-16T10:38:07.746Z,10.52
2022-10-16T10:43:27.230Z,10.43
2022-10-16T10:48:59.655Z,11.18
2022-10-16T10:54:20.176Z,12.13
2022-10-16T10:59:51.683Z,12.10
2022-10-16T11:05:21.419Z,7.80
2022-10-16T11:10:28.172Z,7.25
2022-10-16T11:15:34.120Z,11.52
2022-10-16T11:20:44.009Z,14.55
2022-10-16T11:25:47.478Z,12.02
2022-10-16T11:31:01.061Z,9.82
2022-10-16T11:36:29.553Z,10.18
2022-10-16T11:42:02.798Z,7.25
2022-10-16T11:47:39.696Z,11.80
2022-10-16T11:52:45.724Z,7.97
2022-10-16T11:57:55.255Z,9.40
2022-10-16T12:03:12.789Z,7.63
2022-10-16T12:08:17.250Z,8.60
2022-10-16T12:13:41.379Z,7.05
2022-10-16T12:18:47.349Z,8.25
2022-10-16T12:23:52.031Z,14.00
2022-10-16T12:28:55.458Z,9.60
2022-10-16T12:34:04.583Z,10.55
2022-10-16T12:39:06.648Z,8.88
2022-10-16T12:44:24.778Z,10.45
2022-10-16T12:49:38.683Z,8.13
2022-10-16T12:54:42.737Z,12.15
2022-10-16T12:59:53.989Z,7.63
2022-10-16T13:05:25.992Z,8.98
2022-10-16T13:10:40.546Z,6.80
2022-10-16T13:16:05.027Z,6.15
2022-10-16T13:21:19.508Z,16.70
2022-10-16T13:26:47.800Z,7.18
2022-10-16T13:31:50.342Z,9.85
2022-10-16T13:36:54.203Z,7.20
2022-10-16T13:42:28.334Z,8.00
2022-10-16T13:47:31.183Z,6.90
2022-10-16T13:52:33.596Z,4.47
2022-10-16T13:57:35.639Z,7.53
2022-10-16T14:02:40.691Z,7.72
2022-10-16T14:07:43.664Z,5.38
2022-10-16T14:12:45.921Z,4.68
2022-10-16T14:17:51.593Z,7.28
2022-10-16T14:23:05.935Z,7.75
2022-10-16T14:28:10.971Z,5.25
2022-10-16T14:33:42.286Z,4.13
2022-10-16T14:38:58.901Z,7.03
2022-10-16T14:44:05.197Z,5.72
2022-10-16T14:49:10.080Z,4.90
2022-10-16T14:54:14.141Z,5.40
2022-10-16T14:59:34.410Z,4.35
2022-10-16T15:04:36.377Z,5.95
2022-10-16T15:09:38.453Z,4.88
2022-10-16T15:14:40.480Z,6.53
2022-10-16T15:19:42.657Z,5.78
2022-10-16T15:24:44.812Z,5.45
2022-10-16T15:29:46.785Z,5.18
2022-10-16T15:34:48.767Z,6.97
2022-10-16T15:39:51.665Z,7.80
2022-10-16T15:44:53.675Z,7.35
2022-10-16T15:49:55.614Z,6.25
2022-10-16T15:54:57.874Z,4.47
2022-10-16T15:59:59.923Z,5.35
2022-10-16T16:05:02.687Z,5.90
2022-10-16T16:10:06.651Z,8.20
2022-10-16T16:15:10.122Z,9.25
2022-10-16T16:20:12.559Z,7.72
2022-10-16T16:25:14.554Z,4.55
2022-10-16T16:30:19.824Z,4.45
2022-10-16T16:35:23.108Z,7.45
2022-10-16T16:40:25.175Z,7.93
2022-10-16T16:50:30.152Z,7.43
2022-10-16T16:55:33.619Z,9.70
2022-10-16T17:00:35.787Z,8.15
2022-10-16T17:05:37.818Z,12.65
2022-10-16T17:10:45.607Z,10.35
2022-10-16T17:15:49.752Z,9.85
2022-10-16T17:20:51.756Z,9.85
2022-10-16T17:25:54.167Z,11.32
2022-10-16T17:30:56.380Z,9.10
2022-10-16T17:35:58.998Z,14.10
2022-10-16T17:41:14.036Z,12.43
2022-10-16T17:46:19.463Z,9.02
2022-10-16T17:51:27.486Z,12.20
2022-10-16T17:56:30.158Z,9.57
2022-10-16T18:01:35.277Z,9.30
2022-10-16T18:06:39.445Z,12.15
2022-10-16T18:11:41.503Z,13.55
2022-10-16T18:16:44.202Z,23.63
2022-10-16T18:21:47.275Z,17.65
2022-10-16T18:26:49.905Z,19.05
2022-10-16T18:31:52.367Z,12.18
2022-10-16T18:36:55.206Z,13.23
2022-10-16T18:41:59.930Z,13.10
2022-10-16T18:47:02.426Z,9.82
2022-10-16T18:52:04.693Z,10.45
2022-10-16T18:57:06.689Z,7.90
2022-10-16T19:02:09.364Z,6.40
2022-10-16T19:07:11.419Z,11.32
2022-10-16T19:12:13.397Z,9.38
2022-10-16T19:17:15.501Z,7.65
2022-10-16T19:22:28.276Z,6.25
2022-10-16T19:27:30.585Z,10.13
2022-10-16T19:32:32.743Z,8.68
2022-10-16T19:37:35.194Z,7.22
2022-10-16T19:42:43.088Z,13.07
2022-10-16T19:47:45.834Z,7.97
2022-10-16T19:52:47.795Z,6.95
2022-10-16T19:57:49.850Z,10.48
2022-10-16T20:02:51.828Z,8.00
2022-10-16T20:07:53.878Z,7.80
2022-10-16T20:12:55.891Z,6.45
2022-10-16T20:17:58.090Z,11.95
2022-10-16T20:23:00.157Z,6.93
2022-10-16T20:28:02.147Z,5.93
2022-10-16T20:33:04.797Z,7.95
2022-10-16T20:38:07.352Z,9.02
2022-10-16T20:43:18.148Z,8.57
2022-10-16T20:48:20.156Z,7.57
2022-10-16T20:53:22.713Z,9.52
2022-10-16T20:58:24.669Z,7.53
2022-10-16T21:03:26.616Z,15.93
2022-10-16T21:08:28.612Z,7.75
2022-10-16T21:13:30.757Z,10.65
2022-10-16T21:18:33.324Z,10.05
2022-10-16T21:23:35.588Z,8.77
2022-10-16T21:28:37.683Z,13.05
2022-10-16T21:33:39.798Z,9.98
2022-10-16T21:38:41.953Z,10.75
2022-10-16T21:43:44.512Z,11.93
2022-10-16T21:48:47.091Z,9.20
2022-10-16T21:53:49.090Z,9.30
2022-10-16T21:58:51.188Z,10.07
2022-10-16T22:03:54.135Z,8.82
2022-10-16T22:09:01.547Z,10.98
2022-10-16T22:14:05.585Z,10.75
2022-10-16T22:19:08.184Z,11.80
2022-10-16T22:24:10.415Z,12.90
2022-10-16T22:29:14.586Z,12.73
2022-10-16T22:34:16.536Z,10.13
2022-10-16T22:39:18.664Z,17.15
2022-10-16T22:44:20.666Z,11.43
2022-10-16T22:49:23.577Z,13.93
2022-10-16T22:54:25.536Z,13.27
2022-10-16T22:59:27.527Z,12.90
2022-10-16T23:04:31.808Z,12.73
2022-10-16T23:09:33.753Z,10.65
2022-10-16T23:14:35.701Z,11.43
2022-10-16T23:19:37.674Z,13.48
2022-10-16T23:24:39.716Z,13.25
2022-10-16T23:29:41.694Z,10.27
2022-10-16T23:34:43.666Z,11.40
2022-10-16T23:39:45.627Z,11.48
2022-10-16T23:44:47.582Z,12.27
2022-10-16T23:49:49.581Z,10.65
2022-10-16T23:54:51.572Z,13.18
2022-10-16T23:59:53.540Z,11.50
